sensor_id;sensor_type;location;lat;lon;timestamp;temperature;humidity
15937;DHT22;9163;48.818;8.976;2022-09-16T00:02:11;13.00;99.90
15937;DHT22;9163;48.818;8.976;2022-09-16T00:04:39;13.00;99.90
15937;DHT22;9163;48.818;8.976;2022-09-16T00:07:06;13.00;99.90
15937;DHT22;9163;48.818;8.976;2022-09-16T00:09:35;13.00;99.90
15937;DHT22;9163;48.818;8.976;2022-09-16T00:12:04;13.00;99.90
15937;DHT22;9163;48.818;8.976;2022-09-16T00:14:32;13.00;99.90
15937;DHT22;9163;48.818;8.976;2022-09-16T00:16:59;13.00;99.90
15937;DHT22;9163;48.818;8.976;2022-09-16T00:19:26;13.00;99.90
15937;DHT22;9163;48.818;8.976;2022-09-16T00:21:54;12.90;99.90
15937;DHT22;9163;48.818;8.976;2022-09-16T00:24:21;12.90;99.90
15937;DHT22;9163;48.818;8.976;2022-09-16T00:26:48;12.90;99.90
15937;DHT22;9163;48.818;8.976;2022-09-16T00:29:17;12.80;99.90
15937;DHT22;9163;48.818;8.976;2022-09-16T00:31:44;12.80;99.90
15937;DHT22;9163;48.818;8.976;2022-09-16T00:34:11;12.80;99.90
15937;DHT22;9163;48.818;8.976;2022-09-16T00:36:39;12.70;99.90
15937;DHT22;9163;48.818;8.976;2022-09-16T00:39:06;12.80;99.90
15937;DHT22;9163;48.818;8.976;2022-09-16T00:41:33;12.80;99.90
15937;DHT22;9163;48.818;8.976;2022-09-16T00:44:04;12.90;99.90
15937;DHT22;9163;48.818;8.976;2022-09-16T00:46:36;12.90;99.90
15937;DHT22;9163;48.818;8.976;2022-09-16T00:49:11;13.00;99.90
15937;DHT22;9163;48.818;8.976;2022-09-16T00:51:40;13.00;99.90
15937;DHT22;9163;48.818;8.976;2022-09-16T00:54:09;13.00;99.90
15937;DHT22;9163;48.818;8.976;2022-09-16T00:56:38;13.00;99.90
15937;DHT22;9163;48.818;8.976;2022-09-16T00:59:09;13.00;99.90
15937;DHT22;9163;48.818;8.976;2022-09-16T01:01:40;13.00;99.90
15937;DHT22;9163;48.818;8.976;2022-09-16T01:04:13;13.10;99.90
15937;DHT22;9163;48.818;8.976;2022-09-16T01:06:42;13.10;99.90
15937;DHT22;9163;48.818;8.976;2022-09-16T01:09:09;13.10;99.90
15937;DHT22;9163;48.818;8.976;2022-09-16T01:11:36;13.10;99.90
15937;DHT22;9163;48.818;8.976;2022-09-16T01:14:05;13.10;99.90
15937;DHT22;9163;48.818;8.976;2022-09-16T01:16:56;13.10;99.90
15937;DHT22;9163;48.818;8.976;2022-09-16T01:19:41;13.10;99.90
15937;DHT22;9163;48.818;8.976;2022-09-16T01:22:20;12.90;99.90
15937;DHT22;9163;48.818;8.976;2022-09-16T01:24:59;13.00;99.90
15937;DHT22;9163;48.818;8.976;2022-09-16T01:27:52;12.90;99.90
15937;DHT22;9163;48.818;8.976;2022-09-16T01:33:25;12.80;99.90
15937;DHT22;9163;48.818;8.976;2022-09-16T01:36:06;12.70;99.90
15937;DHT22;9163;48.818;8.976;2022-09-16T01:38:51;12.70;99.90
15937;DHT22;9163;48.818;8.976;2022-09-16T01:41:25;12.60;99.90
15937;DHT22;9163;48.818;8.976;2022-09-16T01:43:59;12.60;99.90
15937;DHT22;9163;48.818;8.976;2022-09-16T01:46:35;12.60;99.90
15937;DHT22;9163;48.818;8.976;2022-09-16T01:49:15;12.60;99.90
15937;DHT22;9163;48.818;8.976;2022-09-16T01:51:49;12.50;99.90
15937;DHT22;9163;48.818;8.976;2022-09-16T01:54:25;12.60;99.90
15937;DHT22;9163;48.818;8.976;2022-09-16T01:56:59;12.60;99.90
15937;DHT22;9163;48.818;8.976;2022-09-16T01:59:35;12.50;99.90
15937;DHT22;9163;48.818;8.976;2022-09-16T02:02:09;12.50;99.90
15937;DHT22;9163;48.818;8.976;2022-09-16T02:04:41;12.50;99.90
15937;DHT22;9163;48.818;8.976;2022-09-16T02:07:12;12.50;99.90
15937;DHT22;9163;48.818;8.976;2022-09-16T02:09:45;12.50;99.90
15937;DHT22;9163;48.818;8.976;2022-09-16T02:12:19;12.50;99.90
15937;DHT22;9163;48.818;8.976;2022-09-16T02:14:48;12.50;99.90
15937;DHT22;9163;48.818;8.976;2022-09-16T02:17:20;12.50;99.90
15937;DHT22;9163;48.818;8.976;2022-09-16T02:19:53;12.50;99.90
15937;DHT22;9163;48.818;8.976;2022-09-16T02:22:24;12.50;99.90
15937;DHT22;9163;48.818;8.976;2022-09-16T02:24:54;12.50;99.90
15937;DHT22;9163;48.818;8.976;2022-09-16T02:27:22;12.50;99.90
15937;DHT22;9163;48.818;8.976;2022-09-16T02:29:51;12.50;99.90
15937;DHT22;9163;48.818;8.976;2022-09-16T02:32:23;12.40;99.90
15937;DHT22;9163;48.818;8.976;2022-09-16T02:34:53;12.40;99.90
15937;DHT22;9163;48.818;8.976;2022-09-16T02:37:26;12.40;99.90
15937;DHT22;9163;48.818;8.976;2022-09-16T02:39:57;12.40;99.90
15937;DHT22;9163;48.818;8.976;2022-09-16T02:42:27;12.40;99.90
15937;DHT22;9163;48.818;8.976;2022-09-16T02:44:55;12.40;99.90
15937;DHT22;9163;48.818;8.976;2022-09-16T02:47:28;12.40;99.90
15937;DHT22;9163;48.818;8.976;2022-09-16T02:49:59;12.30;99.90
15937;DHT22;9163;48.818;8.976;2022-09-16T02:52:34;12.30;99.90
15937;DHT22;9163;48.818;8.976;2022-09-16T02:55:07;12.30;99.90
15937;DHT22;9163;48.818;8.976;2022-09-16T02:57:36;12.30;99.90
15937;DHT22;9163;48.818;8.976;2022-09-16T03:00:08;12.20;99.90
15937;DHT22;9163;48.818;8.976;2022-09-16T03:02:36;12.10;99.90
15937;DHT22;9163;48.818;8.976;2022-09-16T03:05:05;12.10;99.90
15937;DHT22;9163;48.818;8.976;2022-09-16T03:07:34;12.10;99.90
15937;DHT22;9163;48.818;8.976;2022-09-16T03:10:02;12.00;99.90
15937;DHT22;9163;48.818;8.976;2022-09-16T03:12:44;12.00;99.90
15937;DHT22;9163;48.818;8.976;2022-09-16T03:15:39;12.00;99.90
15937;DHT22;9163;48.818;8.976;2022-09-16T03:18:50;12.00;99.90
15937;DHT22;9163;48.818;8.976;2022-09-16T03:21:25;12.10;99.90
15937;DHT22;9163;48.818;8.976;2022-09-16T03:24:03;12.10;99.90
15937;DHT22;9163;48.818;8.976;2022-09-16T03:26:35;12.10;99.90
15937;DHT22;9163;48.818;8.976;2022-09-16T03:29:13;12.10;99.90
15937;DHT22;9163;48.818;8.976;2022-09-16T03:31:47;12.10;99.90
15937;DHT22;9163;48.818;8.976;2022-09-16T03:34:24;12.10;99.90
15937;DHT22;9163;48.818;8.976;2022-09-16T03:36:55;12.20;99.90
15937;DHT22;9163;48.818;8.976;2022-09-16T03:39:24;12.20;99.90
15937;DHT22;9163;48.818;8.976;2022-09-16T03:41:51;12.20;99.90
15937;DHT22;9163;48.818;8.976;2022-09-16T03:44:20;12.20;99.90
15937;DHT22;9163;48.818;8.976;2022-09-16T03:46:56;12.20;99.90
15937;DHT22;9163;48.818;8.976;2022-09-16T03:49:25;12.20;99.90
15937;DHT22;9163;48.818;8.976;2022-09-16T03:51:52;12.20;99.90
15937;DHT22;9163;48.818;8.976;2022-09-16T03:54:19;12.30;99.90
15937;DHT22;9163;48.818;8.976;2022-09-16T03:56:47;12.20;99.90
15937;DHT22;9163;48.818;8.976;2022-09-16T03:59:14;12.30;99.90
15937;DHT22;9163;48.818;8.976;2022-09-16T04:01:42;12.30;99.90
15937;DHT22;9163;48.818;8.976;2022-09-16T04:04:10;12.30;99.90
15937;DHT22;9163;48.818;8.976;2022-09-16T04:06:39;12.30;99.90
15937;DHT22;9163;48.818;8.976;2022-09-16T04:09:09;12.30;99.90
15937;DHT22;9163;48.818;8.976;2022-09-16T04:11:37;12.40;99.90
15937;DHT22;9163;48.818;8.976;2022-09-16T04:14:06;12.40;99.90
15937;DHT22;9163;48.818;8.976;2022-09-16T04:16:33;12.40;99.90
15937;DHT22;9163;48.818;8.976;2022-09-16T04:19:01;12.30;99.90
15937;DHT22;9163;48.818;8.976;2022-09-16T04:21:28;12.30;99.90
15937;DHT22;9163;48.818;8.976;2022-09-16T04:23:57;12.40;99.90
15937;DHT22;9163;48.818;8.976;2022-09-16T04:26:24;12.40;99.90
15937;DHT22;9163;48.818;8.976;2022-09-16T04:28:52;12.40;99.90
15937;DHT22;9163;48.818;8.976;2022-09-16T04:31:20;12.40;99.90
15937;DHT22;9163;48.818;8.976;2022-09-16T04:33:47;12.40;99.90
15937;DHT22;9163;48.818;8.976;2022-09-16T04:36:18;12.40;99.90
15937;DHT22;9163;48.818;8.976;2022-09-16T04:38:46;12.40;99.90
15937;DHT22;9163;48.818;8.976;2022-09-16T04:41:17;12.40;99.90
15937;DHT22;9163;48.818;8.976;2022-09-16T04:43:44;12.40;99.90
15937;DHT22;9163;48.818;8.976;2022-09-16T04:46:12;12.40;99.90
15937;DHT22;9163;48.818;8.976;2022-09-16T04:48:40;12.40;99.90
15937;DHT22;9163;48.818;8.976;2022-09-16T04:51:09;12.40;99.90
15937;DHT22;9163;48.818;8.976;2022-09-16T04:53:37;12.40;99.90
15937;DHT22;9163;48.818;8.976;2022-09-16T04:56:06;12.40;99.90
15937;DHT22;9163;48.818;8.976;2022-09-16T04:58:35;12.30;99.90
15937;DHT22;9163;48.818;8.976;2022-09-16T05:01:05;12.30;99.90
15937;DHT22;9163;48.818;8.976;2022-09-16T05:03:32;12.30;99.90
15937;DHT22;9163;48.818;8.976;2022-09-16T05:06:04;12.30;99.90
15937;DHT22;9163;48.818;8.976;2022-09-16T05:08:32;12.30;99.90
15937;DHT22;9163;48.818;8.976;2022-09-16T05:11:05;12.30;99.90
15937;DHT22;9163;48.818;8.976;2022-09-16T05:13:34;12.30;99.90
15937;DHT22;9163;48.818;8.976;2022-09-16T05:16:03;12.30;99.90
15937;DHT22;9163;48.818;8.976;2022-09-16T05:18:30;12.30;99.90
15937;DHT22;9163;48.818;8.976;2022-09-16T05:20:59;12.30;99.90
15937;DHT22;9163;48.818;8.976;2022-09-16T05:23:27;12.30;99.90
15937;DHT22;9163;48.818;8.976;2022-09-16T05:25:55;12.30;99.90
15937;DHT22;9163;48.818;8.976;2022-09-16T05:28:27;12.30;99.90
15937;DHT22;9163;48.818;8.976;2022-09-16T05:31:06;12.30;99.90
15937;DHT22;9163;48.818;8.976;2022-09-16T05:33:34;12.30;99.90
15937;DHT22;9163;48.818;8.976;2022-09-16T05:36:03;12.30;99.90
15937;DHT22;9163;48.818;8.976;2022-09-16T05:38:31;12.30;99.90
15937;DHT22;9163;48.818;8.976;2022-09-16T05:40:58;12.30;99.90
15937;DHT22;9163;48.818;8.976;2022-09-16T05:43:26;12.30;99.90
15937;DHT22;9163;48.818;8.976;2022-09-16T05:45:53;12.30;99.90
15937;DHT22;9163;48.818;8.976;2022-09-16T05:48:23;12.30;99.90
15937;DHT22;9163;48.818;8.976;2022-09-16T05:50:52;12.30;99.90
15937;DHT22;9163;48.818;8.976;2022-09-16T05:53:19;12.30;99.90
15937;DHT22;9163;48.818;8.976;2022-09-16T05:55:56;12.40;99.90
15937;DHT22;9163;48.818;8.976;2022-09-16T05:58:25;12.30;99.90
15937;DHT22;9163;48.818;8.976;2022-09-16T06:00:57;12.30;99.90
15937;DHT22;9163;48.818;8.976;2022-09-16T06:03:27;12.30;99.90
15937;DHT22;9163;48.818;8.976;2022-09-16T06:05:59;12.30;99.90
15937;DHT22;9163;48.818;8.976;2022-09-16T06:08:27;12.30;99.90
15937;DHT22;9163;48.818;8.976;2022-09-16T06:10:55;12.30;99.90
15937;DHT22;9163;48.818;8.976;2022-09-16T06:13:22;12.30;99.90
15937;DHT22;9163;48.818;8.976;2022-09-16T06:15:51;12.30;99.90
15937;DHT22;9163;48.818;8.976;2022-09-16T06:18:19;12.30;99.90
15937;DHT22;9163;48.818;8.976;2022-09-16T06:20:49;12.30;99.90
15937;DHT22;9163;48.818;8.976;2022-09-16T06:23:17;12.30;99.90
15937;DHT22;9163;48.818;8.976;2022-09-16T06:25:45;12.30;99.90
15937;DHT22;9163;48.818;8.976;2022-09-16T06:28:13;12.40;99.90
15937;DHT22;9163;48.818;8.976;2022-09-16T06:30:40;12.40;99.90
15937;DHT22;9163;48.818;8.976;2022-09-16T06:33:08;12.40;99.90
15937;DHT22;9163;48.818;8.976;2022-09-16T06:35:37;12.40;99.90
15937;DHT22;9163;48.818;8.976;2022-09-16T06:38:06;12.40;99.90
15937;DHT22;9163;48.818;8.976;2022-09-16T06:40:33;12.40;99.90
15937;DHT22;9163;48.818;8.976;2022-09-16T06:43:00;12.40;99.90
15937;DHT22;9163;48.818;8.976;2022-09-16T06:45:28;12.40;99.90
15937;DHT22;9163;48.818;8.976;2022-09-16T06:47:58;12.40;99.90
15937;DHT22;9163;48.818;8.976;2022-09-16T06:50:26;12.40;99.90
15937;DHT22;9163;48.818;8.976;2022-09-16T06:52:53;12.40;99.90
15937;DHT22;9163;48.818;8.976;2022-09-16T06:55:21;12.40;99.90
15937;DHT22;9163;48.818;8.976;2022-09-16T06:57:49;12.40;99.90
15937;DHT22;9163;48.818;8.976;2022-09-16T07:00:23;12.40;99.90
15937;DHT22;9163;48.818;8.976;2022-09-16T07:02:52;12.30;99.90
15937;DHT22;9163;48.818;8.976;2022-09-16T07:05:19;12.30;99.90
15937;DHT22;9163;48.818;8.976;2022-09-16T07:10:32;12.30;99.90
15937;DHT22;9163;48.818;8.976;2022-09-16T07:12:59;12.30;99.90
15937;DHT22;9163;48.818;8.976;2022-09-16T07:15:26;12.30;99.90
15937;DHT22;9163;48.818;8.976;2022-09-16T07:17:53;12.10;99.90
15937;DHT22;9163;48.818;8.976;2022-09-16T07:20:21;12.20;99.90
15937;DHT22;9163;48.818;8.976;2022-09-16T07:22:48;12.20;99.90
15937;DHT22;9163;48.818;8.976;2022-09-16T07:25:18;12.20;99.90
15937;DHT22;9163;48.818;8.976;2022-09-16T07:27:47;12.30;99.90
15937;DHT22;9163;48.818;8.976;2022-09-16T07:30:14;12.30;99.90
15937;DHT22;9163;48.818;8.976;2022-09-16T07:32:42;12.40;99.90
15937;DHT22;9163;48.818;8.976;2022-09-16T07:35:09;12.40;99.90
15937;DHT22;9163;48.818;8.976;2022-09-16T07:37:36;12.40;99.90
15937;DHT22;9163;48.818;8.976;2022-09-16T07:40:04;12.40;99.90
15937;DHT22;9163;48.818;8.976;2022-09-16T07:42:32;12.50;99.90
15937;DHT22;9163;48.818;8.976;2022-09-16T07:45:00;12.60;99.90
15937;DHT22;9163;48.818;8.976;2022-09-16T07:47:27;12.70;99.90
15937;DHT22;9163;48.818;8.976;2022-09-16T07:49:55;12.70;99.90
15937;DHT22;9163;48.818;8.976;2022-09-16T07:52:22;12.70;99.90
15937;DHT22;9163;48.818;8.976;2022-09-16T07:54:54;12.70;99.90
15937;DHT22;9163;48.818;8.976;2022-09-16T07:57:21;12.60;99.90
15937;DHT22;9163;48.818;8.976;2022-09-16T07:59:49;12.70;99.90
15937;DHT22;9163;48.818;8.976;2022-09-16T08:02:17;12.60;99.90
15937;DHT22;9163;48.818;8.976;2022-09-16T08:04:44;12.50;99.90
15937;DHT22;9163;48.818;8.976;2022-09-16T08:07:11;12.40;99.90
15937;DHT22;9163;48.818;8.976;2022-09-16T08:09:39;12.50;99.90
15937;DHT22;9163;48.818;8.976;2022-09-16T08:12:06;12.50;99.90
15937;DHT22;9163;48.818;8.976;2022-09-16T08:14:35;12.60;99.90
15937;DHT22;9163;48.818;8.976;2022-09-16T08:17:03;12.60;99.90
15937;DHT22;9163;48.818;8.976;2022-09-16T08:19:31;12.50;99.90
15937;DHT22;9163;48.818;8.976;2022-09-16T08:21:59;12.70;99.90
15937;DHT22;9163;48.818;8.976;2022-09-16T08:24:26;12.80;99.90
15937;DHT22;9163;48.818;8.976;2022-09-16T08:26:53;13.10;99.90
15937;DHT22;9163;48.818;8.976;2022-09-16T08:29:21;13.20;99.90
15937;DHT22;9163;48.818;8.976;2022-09-16T08:31:50;13.40;99.90
15937;DHT22;9163;48.818;8.976;2022-09-16T08:34:17;13.30;99.90
15937;DHT22;9163;48.818;8.976;2022-09-16T08:36:46;13.20;99.90
15937;DHT22;9163;48.818;8.976;2022-09-16T08:39:13;13.10;99.90
15937;DHT22;9163;48.818;8.976;2022-09-16T08:44:51;12.70;99.90
15937;DHT22;9163;48.818;8.976;2022-09-16T08:47:34;12.70;99.90
15937;DHT22;9163;48.818;8.976;2022-09-16T08:50:11;13.00;99.90
15937;DHT22;9163;48.818;8.976;2022-09-16T08:52:41;13.00;99.90
15937;DHT22;9163;48.818;8.976;2022-09-16T08:55:13;13.20;99.90
15937;DHT22;9163;48.818;8.976;2022-09-16T08:57:47;13.20;99.90
15937;DHT22;9163;48.818;8.976;2022-09-16T09:00:18;13.10;99.90
15937;DHT22;9163;48.818;8.976;2022-09-16T09:02:50;13.00;99.90
15937;DHT22;9163;48.818;8.976;2022-09-16T09:05:26;13.10;99.90
15937;DHT22;9163;48.818;8.976;2022-09-16T09:08:09;13.10;99.90
15937;DHT22;9163;48.818;8.976;2022-09-16T09:10:43;13.20;99.90
15937;DHT22;9163;48.818;8.976;2022-09-16T09:13:23;13.10;99.90
15937;DHT22;9163;48.818;8.976;2022-09-16T09:16:02;13.00;99.90
15937;DHT22;9163;48.818;8.976;2022-09-16T09:18:38;12.90;99.90
15937;DHT22;9163;48.818;8.976;2022-09-16T09:21:17;13.10;99.90
15937;DHT22;9163;48.818;8.976;2022-09-16T09:24:05;13.10;99.90
15937;DHT22;9163;48.818;8.976;2022-09-16T09:26:42;13.10;99.90
15937;DHT22;9163;48.818;8.976;2022-09-16T09:29:28;13.20;99.90
15937;DHT22;9163;48.818;8.976;2022-09-16T09:32:06;13.20;99.90
15937;DHT22;9163;48.818;8.976;2022-09-16T09:34:47;13.20;99.90
15937;DHT22;9163;48.818;8.976;2022-09-16T09:37:32;13.20;99.90
15937;DHT22;9163;48.818;8.976;2022-09-16T09:40:10;13.20;99.90
15937;DHT22;9163;48.818;8.976;2022-09-16T09:42:44;13.30;99.90
15937;DHT22;9163;48.818;8.976;2022-09-16T09:45:19;13.30;99.90
15937;DHT22;9163;48.818;8.976;2022-09-16T09:47:51;13.30;99.90
15937;DHT22;9163;48.818;8.976;2022-09-16T09:50:24;13.30;99.90
15937;DHT22;9163;48.818;8.976;2022-09-16T09:53:01;13.50;99.90
15937;DHT22;9163;48.818;8.976;2022-09-16T09:55:34;13.50;99.90
15937;DHT22;9163;48.818;8.976;2022-09-16T09:58:20;13.60;99.90
15937;DHT22;9163;48.818;8.976;2022-09-16T10:00:50;13.30;99.90
15937;DHT22;9163;48.818;8.976;2022-09-16T10:03:21;13.20;99.90
15937;DHT22;9163;48.818;8.976;2022-09-16T10:05:48;13.10;99.90
15937;DHT22;9163;48.818;8.976;2022-09-16T10:08:24;13.20;99.90
15937;DHT22;9163;48.818;8.976;2022-09-16T10:10:55;13.20;99.90
15937;DHT22;9163;48.818;8.976;2022-09-16T10:13:24;13.10;99.90
15937;DHT22;9163;48.818;8.976;2022-09-16T10:15:53;13.10;99.90
15937;DHT22;9163;48.818;8.976;2022-09-16T10:18:24;13.00;99.90
15937;DHT22;9163;48.818;8.976;2022-09-16T10:21:00;12.90;99.90
15937;DHT22;9163;48.818;8.976;2022-09-16T10:23:28;12.80;99.90
15937;DHT22;9163;48.818;8.976;2022-09-16T10:26:17;12.90;99.90
15937;DHT22;9163;48.818;8.976;2022-09-16T10:28:57;13.10;99.90
15937;DHT22;9163;48.818;8.976;2022-09-16T10:31:28;13.30;99.90
15937;DHT22;9163;48.818;8.976;2022-09-16T10:33:56;13.40;99.90
15937;DHT22;9163;48.818;8.976;2022-09-16T10:36:30;13.50;99.90
15937;DHT22;9163;48.818;8.976;2022-09-16T10:38:59;13.40;99.90
15937;DHT22;9163;48.818;8.976;2022-09-16T10:41:31;13.40;99.90
15937;DHT22;9163;48.818;8.976;2022-09-16T10:44:01;13.70;99.90
15937;DHT22;9163;48.818;8.976;2022-09-16T10:46:30;13.80;99.90
15937;DHT22;9163;48.818;8.976;2022-09-16T10:48:59;14.00;99.90
15937;DHT22;9163;48.818;8.976;2022-09-16T10:51:29;14.00;99.90
15937;DHT22;9163;48.818;8.976;2022-09-16T10:53:59;14.00;99.90
15937;DHT22;9163;48.818;8.976;2022-09-16T10:56:29;13.90;99.90
15937;DHT22;9163;48.818;8.976;2022-09-16T10:59:02;13.60;99.90
15937;DHT22;9163;48.818;8.976;2022-09-16T11:01:38;13.60;99.90
15937;DHT22;9163;48.818;8.976;2022-09-16T11:04:27;13.30;99.90
15937;DHT22;9163;48.818;8.976;2022-09-16T11:07:10;13.40;99.90
15937;DHT22;9163;48.818;8.976;2022-09-16T11:09:47;13.20;99.90
15937;DHT22;9163;48.818;8.976;2022-09-16T11:12:37;13.10;99.90
15937;DHT22;9163;48.818;8.976;2022-09-16T11:15:17;13.00;99.90
15937;DHT22;9163;48.818;8.976;2022-09-16T11:17:57;12.90;99.90
15937;DHT22;9163;48.818;8.976;2022-09-16T11:20:38;13.00;99.90
15937;DHT22;9163;48.818;8.976;2022-09-16T11:23:18;12.90;99.90
15937;DHT22;9163;48.818;8.976;2022-09-16T11:25:54;13.00;99.90
15937;DHT22;9163;48.818;8.976;2022-09-16T11:28:49;13.20;99.90
15937;DHT22;9163;48.818;8.976;2022-09-16T11:31:31;13.30;99.90
15937;DHT22;9163;48.818;8.976;2022-09-16T11:34:06;13.50;99.90
15937;DHT22;9163;48.818;8.976;2022-09-16T11:36:40;13.60;99.90
15937;DHT22;9163;48.818;8.976;2022-09-16T11:39:29;13.90;99.90
15937;DHT22;9163;48.818;8.976;2022-09-16T11:42:05;14.00;99.90
15937;DHT22;9163;48.818;8.976;2022-09-16T11:44:42;13.90;99.90
15937;DHT22;9163;48.818;8.976;2022-09-16T11:47:21;14.00;99.90
15937;DHT22;9163;48.818;8.976;2022-09-16T11:50:06;14.40;99.90
15937;DHT22;9163;48.818;8.976;2022-09-16T11:52:45;14.80;99.90
15937;DHT22;9163;48.818;8.976;2022-09-16T11:55:26;15.80;99.90
15937;DHT22;9163;48.818;8.976;2022-09-16T11:57:58;16.20;99.90
15937;DHT22;9163;48.818;8.976;2022-09-16T12:00:29;16.80;99.90
15937;DHT22;9163;48.818;8.976;2022-09-16T12:03:00;17.20;99.90
15937;DHT22;9163;48.818;8.976;2022-09-16T12:05:33;17.10;99.90
15937;DHT22;9163;48.818;8.976;2022-09-16T12:08:07;16.70;99.90
15937;DHT22;9163;48.818;8.976;2022-09-16T12:10:39;17.10;99.90
15937;DHT22;9163;48.818;8.976;2022-09-16T12:13:11;18.10;99.90
15937;DHT22;9163;48.818;8.976;2022-09-16T12:15:46;18.30;99.90
15937;DHT22;9163;48.818;8.976;2022-09-16T12:18:17;18.00;99.90
15937;DHT22;9163;48.818;8.976;2022-09-16T12:20:48;17.10;99.90
15937;DHT22;9163;48.818;8.976;2022-09-16T12:23:18;16.90;99.90
15937;DHT22;9163;48.818;8.976;2022-09-16T12:25:56;17.40;99.90
15937;DHT22;9163;48.818;8.976;2022-09-16T12:28:31;16.50;99.90
15937;DHT22;9163;48.818;8.976;2022-09-16T12:31:10;15.60;99.90
15937;DHT22;9163;48.818;8.976;2022-09-16T12:33:42;15.60;99.90
15937;DHT22;9163;48.818;8.976;2022-09-16T12:36:13;15.70;99.90
15937;DHT22;9163;48.818;8.976;2022-09-16T12:38:41;15.80;99.90
15937;DHT22;9163;48.818;8.976;2022-09-16T12:41:17;15.60;99.90
15937;DHT22;9163;48.818;8.976;2022-09-16T12:44:04;16.00;99.90
15937;DHT22;9163;48.818;8.976;2022-09-16T12:55:54;15.00;99.90
15937;DHT22;9163;48.818;8.976;2022-09-16T12:58:55;15.00;99.90
15937;DHT22;9163;48.818;8.976;2022-09-16T13:01:34;15.30;99.90
15937;DHT22;9163;48.818;8.976;2022-09-16T13:04:14;16.30;99.90
15937;DHT22;9163;48.818;8.976;2022-09-16T13:06:46;16.70;99.90
15937;DHT22;9163;48.818;8.976;2022-09-16T13:09:21;17.40;99.90
15937;DHT22;9163;48.818;8.976;2022-09-16T13:11:53;17.60;99.90
15937;DHT22;9163;48.818;8.976;2022-09-16T13:14:23;18.30;99.90
15937;DHT22;9163;48.818;8.976;2022-09-16T13:16:53;18.60;99.90
15937;DHT22;9163;48.818;8.976;2022-09-16T13:19:31;18.90;99.90
15937;DHT22;9163;48.818;8.976;2022-09-16T13:22:11;18.80;99.90
15937;DHT22;9163;48.818;8.976;2022-09-16T13:24:41;18.90;99.90
15937;DHT22;9163;48.818;8.976;2022-09-16T13:27:24;18.70;99.90
15937;DHT22;9163;48.818;8.976;2022-09-16T13:29:52;18.20;99.90
15937;DHT22;9163;48.818;8.976;2022-09-16T13:32:37;18.30;99.90
15937;DHT22;9163;48.818;8.976;2022-09-16T13:35:23;18.40;99.90
15937;DHT22;9163;48.818;8.976;2022-09-16T13:37:52;18.50;99.90
15937;DHT22;9163;48.818;8.976;2022-09-16T13:40:23;18.40;99.90
15937;DHT22;9163;48.818;8.976;2022-09-16T13:43:02;17.80;99.90
15937;DHT22;9163;48.818;8.976;2022-09-16T13:45:31;17.30;99.90
15937;DHT22;9163;48.818;8.976;2022-09-16T13:48:04;16.60;99.90
15937;DHT22;9163;48.818;8.976;2022-09-16T13:50:38;16.40;99.90
15937;DHT22;9163;48.818;8.976;2022-09-16T13:53:18;16.50;99.90
15937;DHT22;9163;48.818;8.976;2022-09-16T13:55:47;16.40;99.90
15937;DHT22;9163;48.818;8.976;2022-09-16T13:58:20;16.50;99.90
15937;DHT22;9163;48.818;8.976;2022-09-16T14:00:59;16.80;99.90
15937;DHT22;9163;48.818;8.976;2022-09-16T14:03:51;16.70;99.90
15937;DHT22;9163;48.818;8.976;2022-09-16T14:06:44;16.80;99.90
15937;DHT22;9163;48.818;8.976;2022-09-16T14:09:23;16.90;99.90
15937;DHT22;9163;48.818;8.976;2022-09-16T14:11:59;16.90;99.90
15937;DHT22;9163;48.818;8.976;2022-09-16T14:14:31;17.00;99.90
15937;DHT22;9163;48.818;8.976;2022-09-16T14:17:03;17.20;99.90
15937;DHT22;9163;48.818;8.976;2022-09-16T14:19:34;17.40;99.90
15937;DHT22;9163;48.818;8.976;2022-09-16T14:22:10;17.10;99.90
15937;DHT22;9163;48.818;8.976;2022-09-16T14:24:40;17.10;99.90
15937;DHT22;9163;48.818;8.976;2022-09-16T14:27:18;17.30;99.90
15937;DHT22;9163;48.818;8.976;2022-09-16T14:29:56;17.80;99.90
15937;DHT22;9163;48.818;8.976;2022-09-16T14:32:26;18.00;99.90
15937;DHT22;9163;48.818;8.976;2022-09-16T14:34:55;17.50;99.90
15937;DHT22;9163;48.818;8.976;2022-09-16T14:37:26;16.60;99.90
15937;DHT22;9163;48.818;8.976;2022-09-16T14:40:00;16.40;99.90
15937;DHT22;9163;48.818;8.976;2022-09-16T14:42:39;16.40;99.90
15937;DHT22;9163;48.818;8.976;2022-09-16T14:45:14;16.70;99.90
15937;DHT22;9163;48.818;8.976;2022-09-16T14:47:43;17.10;99.90
15937;DHT22;9163;48.818;8.976;2022-09-16T14:50:14;16.70;99.90
15937;DHT22;9163;48.818;8.976;2022-09-16T14:52:52;16.50;99.90
15937;DHT22;9163;48.818;8.976;2022-09-16T14:55:21;16.60;99.90
15937;DHT22;9163;48.818;8.976;2022-09-16T14:57:49;16.80;99.90
15937;DHT22;9163;48.818;8.976;2022-09-16T15:00:17;16.50;99.90
15937;DHT22;9163;48.818;8.976;2022-09-16T15:02:48;16.10;99.90
15937;DHT22;9163;48.818;8.976;2022-09-16T15:05:22;15.80;99.90
15937;DHT22;9163;48.818;8.976;2022-09-16T15:07:56;15.60;99.90
15937;DHT22;9163;48.818;8.976;2022-09-16T15:10:29;15.30;99.90
15937;DHT22;9163;48.818;8.976;2022-09-16T15:13:00;15.40;99.90
15937;DHT22;9163;48.818;8.976;2022-09-16T15:15:30;15.40;99.90
15937;DHT22;9163;48.818;8.976;2022-09-16T15:18:01;15.40;99.90
15937;DHT22;9163;48.818;8.976;2022-09-16T15:20:30;15.30;99.90
15937;DHT22;9163;48.818;8.976;2022-09-16T15:23:00;15.20;99.90
15937;DHT22;9163;48.818;8.976;2022-09-16T15:25:30;15.30;99.90
15937;DHT22;9163;48.818;8.976;2022-09-16T15:28:06;15.60;99.90
15937;DHT22;9163;48.818;8.976;2022-09-16T15:30:34;15.90;99.90
15937;DHT22;9163;48.818;8.976;2022-09-16T15:33:02;16.10;99.90
15937;DHT22;9163;48.818;8.976;2022-09-16T15:35:29;16.30;99.90
15937;DHT22;9163;48.818;8.976;2022-09-16T15:38:10;16.20;99.90
15937;DHT22;9163;48.818;8.976;2022-09-16T15:40:38;16.00;99.90
15937;DHT22;9163;48.818;8.976;2022-09-16T15:43:13;15.90;99.90
15937;DHT22;9163;48.818;8.976;2022-09-16T15:45:42;16.00;99.90
15937;DHT22;9163;48.818;8.976;2022-09-16T15:48:15;15.80;99.90
15937;DHT22;9163;48.818;8.976;2022-09-16T15:50:46;15.70;99.90
15937;DHT22;9163;48.818;8.976;2022-09-16T15:53:18;15.60;99.90
15937;DHT22;9163;48.818;8.976;2022-09-16T15:55:54;15.50;99.90
15937;DHT22;9163;48.818;8.976;2022-09-16T15:58:32;15.40;99.90
15937;DHT22;9163;48.818;8.976;2022-09-16T16:01:10;15.30;99.90
15937;DHT22;9163;48.818;8.976;2022-09-16T16:03:53;15.30;99.90
15937;DHT22;9163;48.818;8.976;2022-09-16T16:06:51;15.50;99.90
15937;DHT22;9163;48.818;8.976;2022-09-16T16:09:36;15.80;99.90
15937;DHT22;9163;48.818;8.976;2022-09-16T16:12:06;15.80;99.90
15937;DHT22;9163;48.818;8.976;2022-09-16T16:14:34;15.90;99.90
15937;DHT22;9163;48.818;8.976;2022-09-16T16:17:06;15.70;99.90
15937;DHT22;9163;48.818;8.976;2022-09-16T16:19:33;15.30;99.90
15937;DHT22;9163;48.818;8.976;2022-09-16T16:22:06;15.30;99.90
15937;DHT22;9163;48.818;8.976;2022-09-16T16:24:36;15.10;99.90
15937;DHT22;9163;48.818;8.976;2022-09-16T16:27:09;15.10;99.90
15937;DHT22;9163;48.818;8.976;2022-09-16T16:29:37;15.10;99.90
15937;DHT22;9163;48.818;8.976;2022-09-16T16:32:06;14.90;99.90
15937;DHT22;9163;48.818;8.976;2022-09-16T16:34:38;14.70;99.90
15937;DHT22;9163;48.818;8.976;2022-09-16T16:37:07;14.50;99.90